createdAt,value
2023-05-01T00:00:29.811Z,0.00
2023-05-01T00:01:29.809Z,0.00
2023-05-01T00:02:29.859Z,0.00
2023-05-01T00:03:29.892Z,0.00
2023-05-01T00:04:29.804Z,0.00
2023-05-01T00:05:29.811Z,0.00
2023-05-01T00:06:29.827Z,0.00
2023-05-01T00:07:29.732Z,0.00
2023-05-01T00:08:29.715Z,0.00
2023-05-01T00:09:29.732Z,0.00
2023-05-01T00:10:29.689Z,0.00
2023-05-01T00:11:29.784Z,0.00
2023-05-01T00:12:29.668Z,0.00
2023-05-01T00:13:29.657Z,0.00
2023-05-01T00:14:29.644Z,0.00
2023-05-01T00:15:29.640Z,0.00
2023-05-01T00:16:29.663Z,0.00
2023-05-01T00:17:29.633Z,0.00
2023-05-01T00:18:29.608Z,0.00
2023-05-01T00:19:29.599Z,0.00
2023-05-01T00:20:29.603Z,0.00
2023-05-01T00:21:29.588Z,0.00
2023-05-01T00:22:29.578Z,0.00
2023-05-01T00:23:29.545Z,0.00
2023-05-01T00:24:29.538Z,0.00
2023-05-01T00:25:29.531Z,0.00
2023-05-01T00:26:29.528Z,0.00
2023-05-01T00:27:29.512Z,0.00
2023-05-01T00:28:29.532Z,0.00
2023-05-01T00:29:29.489Z,0.00
2023-05-01T00:30:29.485Z,0.00
2023-05-01T00:31:29.566Z,0.00
2023-05-01T00:32:29.619Z,0.00
2023-05-01T00:33:29.449Z,0.00
2023-05-01T00:34:29.430Z,0.00
2023-05-01T00:35:29.432Z,0.00
2023-05-01T00:36:29.442Z,0.00
2023-05-01T00:37:29.431Z,0.00
2023-05-01T00:38:29.389Z,0.00
2023-05-01T00:39:29.383Z,0.00
2023-05-01T00:40:29.369Z,0.00
2023-05-01T00:41:29.406Z,0.00
2023-05-01T00:42:29.351Z,0.00
2023-05-01T00:43:29.393Z,0.00
2023-05-01T00:44:29.333Z,0.00
2023-05-01T00:45:29.350Z,0.00
2023-05-01T00:46:29.348Z,0.00
2023-05-01T00:47:29.335Z,0.00
2023-05-01T00:48:29.294Z,0.00
2023-05-01T00:49:29.313Z,0.00
2023-05-01T00:50:29.261Z,0.00
2023-05-01T00:51:29.295Z,0.00
2023-05-01T00:52:29.280Z,0.00
2023-05-01T00:53:29.268Z,0.00
2023-05-01T00:54:29.223Z,0.00
2023-05-01T00:55:29.218Z,0.00
2023-05-01T00:56:29.222Z,0.00
2023-05-01T00:57:29.214Z,0.00
2023-05-01T00:58:29.184Z,0.00
2023-05-01T00:59:29.169Z,0.00
2023-05-01T01:00:29.188Z,0.00
2023-05-01T01:01:29.214Z,0.00
2023-05-01T01:02:29.179Z,0.00
2023-05-01T01:03:29.117Z,0.00
2023-05-01T01:04:29.181Z,0.00
2023-05-01T01:05:29.157Z,0.00
2023-05-01T01:06:29.233Z,0.00
2023-05-01T01:07:29.086Z,0.00
2023-05-01T01:08:30.683Z,0.00
2023-05-01T01:09:29.088Z,0.00
2023-05-01T01:10:29.075Z,0.00
2023-05-01T01:11:29.064Z,0.00
2023-05-01T01:12:29.023Z,0.00
2023-05-01T01:13:29.026Z,0.00
2023-05-01T01:14:29.040Z,0.00
2023-05-01T01:15:29.013Z,0.00
2023-05-01T01:16:29.039Z,0.00
2023-05-01T01:17:29.000Z,0.00
2023-05-01T01:18:28.963Z,0.00
2023-05-01T01:19:28.946Z,0.00
2023-05-01T01:20:28.947Z,0.00
2023-05-01T01:21:28.942Z,0.00
2023-05-01T01:22:28.930Z,0.00
2023-05-01T01:23:28.929Z,0.00
2023-05-01T01:24:28.932Z,0.00
2023-05-01T01:25:28.905Z,0.00
2023-05-01T01:26:28.881Z,0.00
2023-05-01T01:27:28.881Z,0.00
2023-05-01T01:28:28.903Z,0.00
2023-05-01T01:29:28.848Z,0.00
2023-05-01T01:30:28.862Z,0.00
2023-05-01T01:31:28.917Z,0.00
2023-05-01T01:32:28.903Z,0.00
2023-05-01T01:33:28.799Z,0.00
2023-05-01T01:34:28.799Z,0.00
2023-05-01T01:35:28.845Z,0.00
2023-05-01T01:36:28.784Z,0.00
2023-05-01T01:37:28.758Z,0.00
2023-05-01T01:38:28.759Z,0.00
2023-05-01T01:39:28.730Z,0.00
2023-05-01T01:40:28.809Z,0.00
2023-05-01T01:41:28.707Z,0.00
2023-05-01T01:42:28.715Z,0.00
2023-05-01T01:43:28.711Z,0.00
2023-05-01T01:44:28.681Z,0.00
2023-05-01T01:45:28.700Z,0.00
2023-05-01T01:46:28.693Z,0.00
2023-05-01T01:47:28.724Z,0.00
2023-05-01T01:48:28.649Z,0.00
2023-05-01T01:49:28.631Z,0.00
2023-05-01T01:50:28.691Z,0.00
2023-05-01T01:51:28.606Z,0.00
2023-05-01T01:52:28.616Z,0.00
2023-05-01T01:53:28.607Z,0.00
2023-05-01T01:54:28.574Z,0.00
2023-05-01T01:55:28.564Z,0.00
2023-05-01T01:56:28.575Z,0.00
2023-05-01T01:57:28.539Z,0.00
2023-05-01T01:58:28.532Z,0.00
2023-05-01T01:59:28.517Z,0.00
2023-05-01T02:00:28.517Z,0.00
2023-05-01T02:01:28.551Z,0.00
2023-05-01T02:02:28.577Z,0.00
2023-05-01T02:03:28.548Z,0.00
2023-05-01T02:04:28.471Z,0.00
2023-05-01T02:05:28.466Z,0.00
2023-05-01T02:06:28.526Z,0.00
2023-05-01T02:07:28.430Z,0.00
2023-05-01T02:08:28.440Z,0.00
2023-05-01T02:09:28.413Z,0.00
2023-05-01T02:10:28.405Z,0.00
2023-05-01T02:11:28.461Z,0.00
2023-05-01T02:12:28.393Z,0.00
2023-05-01T02:13:28.371Z,0.00
2023-05-01T02:14:28.363Z,0.00
2023-05-01T02:15:28.375Z,0.00
2023-05-01T02:16:28.353Z,0.00
2023-05-01T02:17:28.366Z,0.00
2023-05-01T02:18:28.329Z,0.00
2023-05-01T02:19:28.467Z,0.00
2023-05-01T02:20:28.365Z,0.00
2023-05-01T02:21:28.310Z,0.00
2023-05-01T02:22:28.272Z,0.00
2023-05-01T02:23:28.271Z,0.00
2023-05-01T02:24:28.262Z,0.00
2023-05-01T02:25:29.558Z,0.00
2023-05-01T02:26:28.260Z,0.00
2023-05-01T02:27:28.228Z,0.00
2023-05-01T02:28:28.222Z,0.00
2023-05-01T02:29:28.245Z,0.00
2023-05-01T02:30:28.223Z,0.00
2023-05-01T02:31:28.225Z,0.00
2023-05-01T02:32:28.280Z,0.00
2023-05-01T02:33:28.164Z,0.00
2023-05-01T02:34:28.163Z,0.00
2023-05-01T02:35:28.159Z,0.00
2023-05-01T02:36:28.140Z,0.00
2023-05-01T02:37:28.114Z,0.00
2023-05-01T02:38:28.104Z,0.00
2023-05-01T02:39:28.098Z,0.00
2023-05-01T02:40:28.095Z,0.00
2023-05-01T02:41:28.078Z,0.00
2023-05-01T02:42:28.068Z,0.00
2023-05-01T02:43:28.044Z,0.00
2023-05-01T02:44:28.044Z,0.00
2023-05-01T02:45:28.085Z,0.00
2023-05-01T02:46:28.059Z,0.00
2023-05-01T02:47:28.105Z,0.00
2023-05-01T02:48:27.990Z,0.00
2023-05-01T02:49:27.985Z,0.00
2023-05-01T02:50:28.004Z,0.00
2023-05-01T02:51:27.963Z,0.00
2023-05-01T02:52:27.966Z,0.00
2023-05-01T02:53:27.941Z,0.00
2023-05-01T02:54:27.944Z,0.00
2023-05-01T02:55:27.952Z,0.00
2023-05-01T02:56:27.949Z,0.00
2023-05-01T02:57:27.911Z,0.00
2023-05-01T02:58:27.899Z,0.00
2023-05-01T02:59:27.877Z,0.00
2023-05-01T03:00:27.891Z,0.00
2023-05-01T03:01:28.000Z,0.00
2023-05-01T03:02:27.812Z,1.00
2023-05-01T03:03:27.810Z,1.00
2023-05-01T03:04:27.874Z,0.00
2023-05-01T03:05:27.832Z,0.00
2023-05-01T03:06:27.777Z,2.00
2023-05-01T03:07:27.739Z,1.00
2023-05-01T03:08:27.731Z,1.00
2023-05-01T03:09:27.773Z,0.00
2023-05-01T03:10:27.805Z,0.00
2023-05-01T03:11:27.810Z,3.00
2023-05-01T03:12:27.689Z,2.00
2023-05-01T03:13:27.672Z,5.00
2023-05-01T03:14:27.659Z,2.00
2023-05-01T03:15:27.658Z,2.00
2023-05-01T03:16:27.710Z,2.00
2023-05-01T03:17:27.661Z,8.00
2023-05-01T03:18:27.625Z,7.00
2023-05-01T03:19:27.622Z,5.00
2023-05-01T03:20:27.770Z,5.00
2023-05-01T03:21:27.578Z,7.00
2023-05-01T03:22:27.589Z,9.00
2023-05-01T03:23:27.554Z,11.00
2023-05-01T03:24:27.550Z,17.00
2023-05-01T03:25:27.558Z,16.00
2023-05-01T03:26:27.531Z,16.00
2023-05-01T03:27:27.513Z,16.00
2023-05-01T03:28:27.548Z,26.00
2023-05-01T03:29:27.501Z,31.00
2023-05-01T03:30:27.504Z,34.00
2023-05-01T03:31:27.532Z,39.00
2023-05-01T03:32:27.555Z,43.00
2023-05-01T03:33:27.466Z,51.00
2023-05-01T03:34:27.461Z,54.00
2023-05-01T03:35:27.533Z,55.00
2023-05-01T03:36:27.423Z,60.00
2023-05-01T03:37:27.400Z,67.00
2023-05-01T03:38:27.414Z,74.00
2023-05-01T03:39:27.374Z,79.00
2023-05-01T03:40:27.380Z,88.00
2023-05-01T03:41:27.368Z,94.00
2023-05-01T03:42:27.349Z,103.00
2023-05-01T03:43:27.344Z,115.00
2023-05-01T03:44:27.342Z,119.00
2023-05-01T03:45:27.357Z,129.00
2023-05-01T03:46:27.386Z,138.00
2023-05-01T03:47:27.327Z,145.00
2023-05-01T03:48:27.295Z,152.00
2023-05-01T03:49:27.300Z,151.00
2023-05-01T03:50:27.415Z,159.00
2023-05-01T03:51:27.265Z,171.00
2023-05-01T03:52:27.248Z,183.00
2023-05-01T03:53:27.243Z,192.00
2023-05-01T03:54:27.221Z,205.00
2023-05-01T03:55:27.220Z,217.00
2023-05-01T03:56:27.203Z,229.00
2023-05-01T03:57:27.200Z,244.00
2023-05-01T03:58:27.181Z,256.00
2023-05-01T03:59:27.167Z,286.00
2023-05-01T04:00:27.194Z,311.00
2023-05-01T04:01:27.146Z,303.00
2023-05-01T04:02:27.220Z,289.00
2023-05-01T04:03:27.337Z,295.00
2023-05-01T04:04:27.165Z,302.00
2023-05-01T04:05:27.125Z,308.00
2023-05-01T04:06:27.184Z,344.00
2023-05-01T04:07:27.093Z,402.00
2023-05-01T04:08:27.081Z,395.00
2023-05-01T04:09:27.076Z,354.00
2023-05-01T04:10:27.068Z,355.00
2023-05-01T04:11:27.072Z,403.00
2023-05-01T04:12:27.046Z,427.00
2023-05-01T04:13:27.028Z,430.00
2023-05-01T04:14:27.089Z,435.00
2023-05-01T04:15:27.019Z,475.00
2023-05-01T04:16:27.055Z,494.00
2023-05-01T04:17:26.973Z,488.00
2023-05-01T04:18:26.969Z,492.00
2023-05-01T04:19:26.992Z,503.00
2023-05-01T04:20:26.973Z,501.00
2023-05-01T04:21:26.932Z,478.00
2023-05-01T04:22:27.117Z,483.00
2023-05-01T04:23:26.913Z,512.00
2023-05-01T04:24:26.899Z,547.00
2023-05-01T04:25:26.902Z,613.00
2023-05-01T04:26:26.900Z,576.00
2023-05-01T04:27:26.871Z,530.00
2023-05-01T04:28:26.867Z,555.00
2023-05-01T04:29:26.855Z,588.00
2023-05-01T04:30:26.831Z,650.00
2023-05-01T04:31:26.887Z,638.00
2023-05-01T04:32:27.180Z,604.00
2023-05-01T04:33:26.802Z,646.00
2023-05-01T04:34:26.809Z,666.00
2023-05-01T04:35:26.817Z,603.00
2023-05-01T04:36:26.781Z,622.00
2023-05-01T04:37:26.765Z,627.00
2023-05-01T04:38:26.754Z,639.00
2023-05-01T04:39:26.741Z,684.00
2023-05-01T04:40:26.743Z,703.00
2023-05-01T04:41:26.706Z,683.00
2023-05-01T04:42:26.713Z,654.00
2023-05-01T04:43:26.704Z,673.00
2023-05-01T04:44:26.679Z,706.00
2023-05-01T04:45:26.684Z,714.00
2023-05-01T04:46:26.689Z,680.00
2023-05-01T04:47:26.646Z,715.00
2023-05-01T04:48:26.662Z,778.00
2023-05-01T04:49:26.646Z,782.00
2023-05-01T04:50:26.623Z,733.00
2023-05-01T04:51:26.603Z,760.00
2023-05-01T04:52:26.681Z,761.00
2023-05-01T04:53:26.627Z,800.00
2023-05-01T04:54:26.611Z,799.00
2023-05-01T04:55:27.396Z,795.00
2023-05-01T04:56:26.559Z,772.00
2023-05-01T04:57:26.542Z,806.00
2023-05-01T04:58:26.549Z,799.00
2023-05-01T04:59:26.529Z,825.00
2023-05-01T05:00:26.525Z,848.00
2023-05-01T05:01:26.598Z,886.00
2023-05-01T05:02:26.570Z,923.00
2023-05-01T05:03:26.602Z,905.00
2023-05-01T05:04:26.481Z,867.00
2023-05-01T05:05:26.478Z,861.00
2023-05-01T05:06:26.506Z,892.00
2023-05-01T05:07:26.442Z,902.00
2023-05-01T05:08:26.440Z,908.00
2023-05-01T05:09:26.409Z,912.00
2023-05-01T05:10:26.426Z,925.00
2023-05-01T05:11:26.409Z,936.00
2023-05-01T05:12:26.395Z,956.00
2023-05-01T05:13:26.444Z,971.00
2023-05-01T05:14:26.366Z,972.00
2023-05-01T05:15:26.366Z,1006.00
2023-05-01T05:16:26.364Z,999.00
2023-05-01T05:17:26.321Z,964.00
2023-05-01T05:18:26.317Z,986.00
2023-05-01T05:19:26.304Z,1026.00
2023-05-01T05:20:26.300Z,1013.00
2023-05-01T05:21:26.300Z,1035.00
2023-05-01T05:22:26.275Z,1087.00
2023-05-01T05:23:26.259Z,1048.00
2023-05-01T05:24:26.242Z,996.00
2023-05-01T05:25:26.245Z,1088.00
2023-05-01T05:26:26.213Z,1047.00
2023-05-01T05:27:26.226Z,1116.00
2023-05-01T05:28:26.209Z,1103.00
2023-05-01T05:29:26.202Z,1155.00
2023-05-01T05:30:26.190Z,1083.00
2023-05-01T05:31:26.216Z,1115.00
2023-05-01T05:32:26.378Z,1038.00
2023-05-01T05:33:26.197Z,1097.00
2023-05-01T05:34:26.131Z,1134.00
2023-05-01T05:35:26.163Z,1126.00
2023-05-01T05:36:26.146Z,1120.00
2023-05-01T05:37:26.129Z,1165.00
2023-05-01T05:38:26.094Z,1182.00
2023-05-01T05:39:26.090Z,1169.00
2023-05-01T05:40:26.114Z,1197.00
2023-05-01T05:41:26.070Z,1196.00
2023-05-01T05:42:26.072Z,1217.00
2023-05-01T05:43:27.998Z,1222.00
2023-05-01T05:44:26.068Z,1233.00
2023-05-01T05:45:26.030Z,1243.00
2023-05-01T05:46:26.107Z,1247.00
2023-05-01T05:47:26.048Z,1253.00
2023-05-01T05:48:26.020Z,1282.00
2023-05-01T05:49:25.994Z,1289.00
2023-05-01T05:50:25.982Z,1285.00
2023-05-01T05:51:25.959Z,1277.00
2023-05-01T05:52:25.948Z,1295.00
2023-05-01T05:53:26.403Z,1291.00
2023-05-01T05:54:25.950Z,1300.00
2023-05-01T05:55:25.921Z,1292.00
2023-05-01T05:56:25.924Z,1314.00
2023-05-01T05:57:25.897Z,1305.00
2023-05-01T05:58:25.891Z,1326.00
2023-05-01T05:59:25.893Z,1338.00
2023-05-01T06:00:25.862Z,1328.00
2023-05-01T06:01:25.865Z,1352.00
2023-05-01T06:02:25.990Z,1365.00
2023-05-01T06:03:25.940Z,1372.00
2023-05-01T06:04:25.864Z,1388.00
2023-05-01T06:05:25.897Z,1390.00
2023-05-01T06:06:25.861Z,1403.00
2023-05-01T06:07:25.812Z,1418.00
2023-05-01T06:08:25.790Z,1435.00
2023-05-01T06:09:25.795Z,1441.00
2023-05-01T06:10:25.761Z,1451.00
2023-05-01T06:11:25.749Z,1466.00
2023-05-01T06:12:25.726Z,1475.00
2023-05-01T06:13:25.740Z,1499.00
2023-05-01T06:14:25.743Z,1510.00
2023-05-01T06:15:25.708Z,1541.00
2023-05-01T06:16:25.760Z,1551.00
2023-05-01T06:17:25.694Z,1557.00
2023-05-01T06:18:25.668Z,1584.00
2023-05-01T06:19:25.689Z,1592.00
2023-05-01T06:20:25.654Z,1586.00
2023-05-01T06:21:25.660Z,1618.00
2023-05-01T06:22:25.654Z,1618.00
2023-05-01T06:23:25.629Z,1632.00
2023-05-01T06:24:25.635Z,1622.00
2023-05-01T06:25:25.602Z,1622.00
2023-05-01T06:26:25.582Z,1639.00
2023-05-01T06:27:25.590Z,1656.00
2023-05-01T06:28:25.569Z,1718.00
2023-05-01T06:29:25.596Z,1648.00
2023-05-01T06:30:25.557Z,1701.00
2023-05-01T06:31:25.602Z,1728.00
2023-05-01T06:32:25.581Z,1683.00
2023-05-01T06:33:25.528Z,1739.00
2023-05-01T06:34:25.518Z,1710.00
2023-05-01T06:35:25.526Z,1659.00
2023-05-01T06:36:25.476Z,1732.00
2023-05-01T06:37:25.466Z,1786.00
2023-05-01T06:38:27.005Z,1777.00
2023-05-01T06:39:25.469Z,1810.00
2023-05-01T06:40:25.439Z,1779.00
2023-05-01T06:41:25.437Z,1827.00
2023-05-01T06:42:25.414Z,1862.00
2023-05-01T06:43:25.409Z,1853.00
2023-05-01T06:44:25.412Z,1898.00
2023-05-01T06:45:25.381Z,1939.00
2023-05-01T06:46:25.406Z,1905.00
2023-05-01T06:47:25.377Z,1847.00
2023-05-01T06:48:25.376Z,1931.00
2023-05-01T06:49:25.384Z,1995.00
2023-05-01T06:50:25.367Z,2043.00
2023-05-01T06:51:25.319Z,2085.00
2023-05-01T06:52:25.302Z,2125.00
2023-05-01T06:53:25.305Z,2184.00
2023-05-01T06:54:25.310Z,2219.00
2023-05-01T06:55:25.284Z,2276.00
2023-05-01T06:56:25.257Z,2345.00
2023-05-01T06:57:25.271Z,2315.00
2023-05-01T06:58:25.237Z,2369.00
2023-05-01T06:59:25.263Z,2362.00
2023-05-01T07:00:25.234Z,2412.00
2023-05-01T07:01:25.259Z,2426.00
2023-05-01T07:02:25.214Z,2437.00
2023-05-01T07:03:25.280Z,2450.00
2023-05-01T07:04:25.207Z,2418.00
2023-05-01T07:05:25.190Z,2425.00
2023-05-01T07:06:25.248Z,2455.00
2023-05-01T07:07:25.168Z,2477.00
2023-05-01T07:08:25.150Z,2533.00
2023-05-01T07:09:25.162Z,2498.00
2023-05-01T07:10:25.128Z,2508.00
2023-05-01T07:11:25.106Z,2651.00
2023-05-01T07:12:25.091Z,2554.00
2023-05-01T07:13:25.115Z,2607.00
2023-05-01T07:14:25.116Z,2723.00
2023-05-01T07:15:25.079Z,2816.00
2023-05-01T07:16:25.095Z,2882.00
2023-05-01T07:17:25.103Z,2918.00
2023-05-01T07:18:25.043Z,2945.00
2023-05-01T07:19:25.033Z,2855.00
2023-05-01T07:20:25.079Z,2947.00
2023-05-01T07:21:25.003Z,2902.00
2023-05-01T07:22:24.987Z,2880.00
2023-05-01T07:23:24.982Z,2996.00
2023-05-01T07:24:25.019Z,2994.00
2023-05-01T07:25:24.981Z,3150.00
2023-05-01T07:26:24.959Z,3234.00
2023-05-01T07:27:24.942Z,3338.00
2023-05-01T07:28:24.923Z,3465.00
2023-05-01T07:29:24.963Z,3473.00
2023-05-01T07:30:24.901Z,3663.00
2023-05-01T07:31:24.931Z,3517.00
2023-05-01T07:32:24.893Z,3462.00
2023-05-01T07:33:24.967Z,3517.00
2023-05-01T07:34:24.894Z,3821.00
2023-05-01T07:35:24.863Z,3803.00
2023-05-01T07:36:24.851Z,3755.00
2023-05-01T07:37:24.833Z,4081.00
2023-05-01T07:38:24.872Z,3755.00
2023-05-01T07:39:24.826Z,4111.00
2023-05-01T07:40:24.853Z,4508.00
2023-05-01T07:41:24.804Z,4731.00
2023-05-01T07:42:24.796Z,4935.00
2023-05-01T07:43:24.775Z,5690.00
2023-05-01T07:44:24.776Z,5688.00
2023-05-01T07:45:24.757Z,5674.00
2023-05-01T07:46:24.811Z,5319.00
2023-05-01T07:47:24.843Z,5309.00
2023-05-01T07:48:24.750Z,4975.00
2023-05-01T07:49:24.754Z,4455.00
2023-05-01T07:50:24.749Z,4958.00
2023-05-01T07:51:24.714Z,4840.00
2023-05-01T07:52:24.658Z,4564.00
2023-05-01T07:53:24.681Z,4204.00
2023-05-01T07:54:24.697Z,4617.00
2023-05-01T07:55:24.660Z,4399.00
2023-05-01T07:56:24.698Z,4482.00
2023-05-01T07:57:24.616Z,4779.00
2023-05-01T07:58:24.650Z,4311.00
2023-05-01T07:59:24.624Z,5072.00
2023-05-01T08:00:24.639Z,5440.00
2023-05-01T08:01:24.598Z,5490.00
2023-05-01T08:02:24.672Z,5386.00
2023-05-01T08:03:24.742Z,5363.00
2023-05-01T08:04:24.644Z,5875.00
2023-05-01T08:05:24.556Z,5717.00
2023-05-01T08:06:24.583Z,6131.00
2023-05-01T08:07:24.513Z,5975.00
2023-05-01T08:08:24.526Z,5650.00
2023-05-01T08:09:24.517Z,6555.00
2023-05-01T08:10:24.511Z,6358.00
2023-05-01T08:11:24.493Z,6358.00
2023-05-01T08:12:24.456Z,6180.00
2023-05-01T08:13:24.471Z,6013.00
2023-05-01T08:14:24.502Z,6436.00
2023-05-01T08:15:24.459Z,5850.00
2023-05-01T08:16:24.481Z,6723.00
2023-05-01T08:17:24.495Z,6361.00
2023-05-01T08:18:24.385Z,7268.00
2023-05-01T08:19:24.445Z,6596.00
2023-05-01T08:20:24.367Z,6511.00
2023-05-01T08:21:24.368Z,5155.00
2023-05-01T08:22:24.351Z,6039.00
2023-05-01T08:23:24.350Z,7078.00
2023-05-01T08:24:24.516Z,6989.00
2023-05-01T08:25:24.377Z,6737.00
2023-05-01T08:26:24.336Z,6101.00
2023-05-01T08:27:24.302Z,7672.00
2023-05-01T08:28:24.291Z,6027.00
2023-05-01T08:29:24.318Z,5830.00
2023-05-01T08:30:24.274Z,4631.00
2023-05-01T08:31:24.278Z,14606.00
2023-05-01T08:32:24.320Z,12952.00
2023-05-01T08:33:24.235Z,10326.00
2023-05-01T08:34:24.292Z,24900.00
2023-05-01T08:35:24.245Z,16728.00
2023-05-01T08:36:24.244Z,16362.00
2023-05-01T08:37:24.243Z,13952.00
2023-05-01T08:38:24.203Z,12333.00
2023-05-01T08:39:24.210Z,6019.00
2023-05-01T08:40:24.164Z,10636.00
2023-05-01T08:41:24.159Z,16436.00
2023-05-01T08:42:24.135Z,13869.00
2023-05-01T08:43:24.181Z,15304.00
2023-05-01T08:44:24.148Z,16090.00
2023-05-01T08:45:24.132Z,10725.00
2023-05-01T08:46:24.156Z,16678.00
2023-05-01T08:47:24.123Z,22817.00
2023-05-01T08:48:24.071Z,29092.00
2023-05-01T08:49:24.097Z,31071.00
2023-05-01T08:50:24.070Z,20680.00
2023-05-01T08:51:24.047Z,28921.00
2023-05-01T08:52:24.032Z,19207.00
2023-05-01T08:53:24.072Z,32631.00
2023-05-01T08:54:24.057Z,28130.00
2023-05-01T08:55:24.015Z,18784.00
2023-05-01T08:56:23.990Z,19350.00
2023-05-01T08:57:23.993Z,13210.00
2023-05-01T08:58:23.979Z,15815.00
2023-05-01T08:59:23.969Z,6436.00
2023-05-01T09:00:23.952Z,23287.00
2023-05-01T09:01:23.967Z,15983.00
2023-05-01T09:02:24.001Z,4044.00
2023-05-01T09:03:23.998Z,13559.00
2023-05-01T09:04:24.080Z,26613.00
2023-05-01T09:05:23.906Z,17840.00
2023-05-01T09:06:23.938Z,19329.00
2023-05-01T09:07:23.943Z,13463.00
2023-05-01T09:08:23.855Z,16175.00
2023-05-01T09:09:23.886Z,18945.00
2023-05-01T09:10:23.872Z,20188.00
2023-05-01T09:11:23.843Z,13877.00
2023-05-01T09:12:23.818Z,15661.00
2023-05-01T09:13:23.835Z,12588.00
2023-05-01T09:14:23.901Z,19847.00
2023-05-01T09:15:23.795Z,24652.00
2023-05-01T09:16:23.796Z,17773.00
2023-05-01T09:17:23.820Z,16110.00
2023-05-01T09:18:23.759Z,21875.00
2023-05-01T09:19:23.786Z,22497.00
2023-05-01T09:20:23.741Z,17385.00
2023-05-01T09:21:23.728Z,21281.00
2023-05-01T09:22:23.723Z,29716.00
2023-05-01T09:23:23.729Z,26862.00
2023-05-01T09:24:23.756Z,23263.00
2023-05-01T09:25:23.762Z,14162.00
2023-05-01T09:26:23.705Z,20592.00
2023-05-01T09:27:23.666Z,10312.00
2023-05-01T09:28:23.674Z,3476.00
2023-05-01T09:29:23.685Z,11449.00
2023-05-01T09:30:23.639Z,18380.00
2023-05-01T09:31:23.744Z,17069.00
2023-05-01T09:32:23.710Z,24881.00
2023-05-01T09:33:23.637Z,4179.00
2023-05-01T09:34:23.642Z,24941.00
2023-05-01T09:35:23.602Z,10564.00
2023-05-01T09:36:23.579Z,14122.00
2023-05-01T09:37:23.563Z,21230.00
2023-05-01T09:38:23.587Z,17675.00
2023-05-01T09:39:23.562Z,12943.00
2023-05-01T09:40:23.550Z,25968.00
2023-05-01T09:41:23.569Z,19271.00
2023-05-01T09:42:23.514Z,32343.00
2023-05-01T09:43:23.501Z,36012.00
2023-05-01T09:44:23.495Z,27099.00
2023-05-01T09:45:23.768Z,72148.00
2023-05-01T09:46:23.500Z,30631.00
2023-05-01T09:47:23.483Z,17064.00
2023-05-01T09:48:23.443Z,73714.00
2023-05-01T09:49:23.469Z,31460.00
2023-05-01T09:50:23.439Z,34383.00
2023-05-01T09:51:23.442Z,34054.00
2023-05-01T09:52:23.409Z,26222.00
2023-05-01T09:53:23.410Z,28662.00
2023-05-01T09:54:23.417Z,16371.00
2023-05-01T09:55:25.446Z,6272.00
2023-05-01T09:56:23.373Z,5180.00
2023-05-01T09:57:23.360Z,26346.00
2023-05-01T09:58:23.373Z,27520.00
2023-05-01T09:59:23.367Z,13022.00
2023-05-01T10:00:23.349Z,17988.00
2023-05-01T10:01:23.337Z,22251.00
2023-05-01T10:02:23.449Z,10829.00
2023-05-01T10:03:23.446Z,8924.00
2023-05-01T10:04:23.433Z,7432.00
2023-05-01T10:05:23.274Z,10679.00
2023-05-01T10:06:23.325Z,19278.00
2023-05-01T10:07:23.252Z,21104.00
2023-05-01T10:08:23.244Z,24512.00
2023-05-01T10:09:23.292Z,20759.00
2023-05-01T10:10:23.254Z,18465.00
2023-05-01T10:11:23.209Z,4229.00
2023-05-01T10:12:23.345Z,9657.00
2023-05-01T10:13:23.184Z,5537.00
2023-05-01T10:14:23.214Z,2270.00
2023-05-01T10:15:26.590Z,3991.00
2023-05-01T10:16:23.291Z,19373.00
2023-05-01T10:17:23.161Z,79357.00
2023-05-01T10:18:23.162Z,69626.00
2023-05-01T10:19:23.369Z,16017.00
2023-05-01T10:20:23.165Z,29339.00
2023-05-01T10:21:23.181Z,24050.00
2023-05-01T10:22:23.103Z,26509.00
2023-05-01T10:23:23.102Z,18650.00
2023-05-01T10:24:23.121Z,74842.00
2023-05-01T10:25:23.069Z,75789.00
2023-05-01T10:26:23.096Z,74900.00
2023-05-01T10:27:23.080Z,69041.00
2023-05-01T10:28:23.036Z,17654.00
2023-05-01T10:29:23.058Z,30512.00
2023-05-01T10:30:23.034Z,24126.00
2023-05-01T10:31:23.056Z,20538.00
2023-05-01T10:32:22.995Z,28471.00
2023-05-01T10:33:23.023Z,23268.00
2023-05-01T10:34:23.084Z,22333.00
2023-05-01T10:35:22.991Z,10760.00
2023-05-01T10:36:22.978Z,18797.00
2023-05-01T10:37:22.964Z,4825.00
2023-05-01T10:38:22.934Z,17764.00
2023-05-01T10:39:22.943Z,26166.00
2023-05-01T10:40:22.953Z,18958.00
2023-05-01T10:41:22.917Z,15280.00
2023-05-01T10:42:22.890Z,8507.00
2023-05-01T10:43:22.901Z,5162.00
2023-05-01T10:44:22.942Z,5296.00
2023-05-01T10:45:22.888Z,29901.00
2023-05-01T10:46:22.916Z,29955.00
2023-05-01T10:47:22.862Z,21784.00
2023-05-01T10:48:22.843Z,27725.00
2023-05-01T10:49:22.838Z,16154.00
2023-05-01T10:50:22.859Z,13043.00
2023-05-01T10:51:24.958Z,8905.00
2023-05-01T10:52:22.801Z,19268.00
2023-05-01T10:53:22.767Z,13650.00
2023-05-01T10:54:22.859Z,11534.00
2023-05-01T10:55:22.749Z,18096.00
2023-05-01T10:56:22.745Z,23373.00
2023-05-01T10:57:22.732Z,11147.00
2023-05-01T10:58:22.731Z,10367.00
2023-05-01T10:59:22.740Z,9254.00
2023-05-01T11:00:22.703Z,8197.00
2023-05-01T11:01:22.733Z,4740.00
2023-05-01T11:02:22.902Z,27939.00
2023-05-01T11:03:22.692Z,18146.00
2023-05-01T11:04:22.748Z,31220.00
2023-05-01T11:05:35.799Z,20797.00
2023-05-01T11:06:22.770Z,20471.00
2023-05-01T11:07:22.808Z,14246.00
2023-05-01T11:08:22.638Z,8314.00
2023-05-01T11:09:22.666Z,6420.00
2023-05-01T11:10:22.620Z,5138.00
2023-05-01T11:11:22.591Z,20053.00
2023-05-01T11:12:22.580Z,24548.00
2023-05-01T11:13:22.585Z,18803.00
2023-05-01T11:14:22.574Z,10388.00
2023-05-01T11:15:22.551Z,12171.00
2023-05-01T11:16:22.587Z,10060.00
2023-05-01T11:17:22.574Z,9237.00
2023-05-01T11:18:22.517Z,7827.00
2023-05-01T11:19:22.545Z,8078.00
2023-05-01T11:20:22.506Z,6352.00
2023-05-01T11:21:22.490Z,10425.00
2023-05-01T11:22:22.502Z,8446.00
2023-05-01T11:23:22.464Z,10600.00
2023-05-01T11:24:22.508Z,4879.00
2023-05-01T11:25:22.443Z,8403.00
2023-05-01T11:26:22.488Z,9320.00
2023-05-01T11:27:22.431Z,15240.00
2023-05-01T11:28:22.445Z,8394.00
2023-05-01T11:29:22.402Z,9726.00
2023-05-01T11:30:22.396Z,7972.00
2023-05-01T11:31:22.414Z,8428.00
2023-05-01T11:32:22.436Z,10403.00
2023-05-01T11:33:22.395Z,10482.00
2023-05-01T11:34:22.400Z,12211.00
2023-05-01T11:35:22.359Z,11807.00
2023-05-01T11:36:22.324Z,23426.00
2023-05-01T11:37:22.327Z,13538.00
2023-05-01T11:38:22.321Z,12706.00
2023-05-01T11:39:22.341Z,23304.00
2023-05-01T11:40:22.303Z,21131.00
2023-05-01T11:41:22.268Z,23954.00
2023-05-01T11:42:22.353Z,16095.00
2023-05-01T11:43:22.255Z,8659.00
2023-05-01T11:44:22.280Z,5807.00
2023-05-01T11:45:22.241Z,5706.00
2023-05-01T11:46:22.314Z,23327.00
2023-05-01T11:47:22.286Z,26226.00
2023-05-01T11:48:22.205Z,27833.00
2023-05-01T11:49:22.242Z,35789.00
2023-05-01T11:50:22.202Z,19414.00
2023-05-01T11:51:22.205Z,30259.00
2023-05-01T11:52:22.162Z,37032.00
2023-05-01T11:53:22.155Z,11720.00
2023-05-01T11:54:22.174Z,26899.00
2023-05-01T11:55:22.137Z,30611.00
2023-05-01T11:57:22.157Z,30186.00
2023-05-01T11:58:22.110Z,13201.00
2023-05-01T11:59:22.150Z,25988.00
2023-05-01T12:00:22.085Z,23745.00
2023-05-01T12:01:22.081Z,20951.00
2023-05-01T12:02:22.083Z,14532.00
2023-05-01T12:03:22.348Z,9383.00
2023-05-01T12:04:22.119Z,7239.00
2023-05-01T12:05:22.046Z,4440.00
2023-05-01T12:06:22.068Z,23232.00
2023-05-01T12:07:22.020Z,32857.00
2023-05-01T12:08:21.995Z,25508.00
2023-05-01T12:09:22.009Z,9038.00
2023-05-01T12:10:21.988Z,76568.00
2023-05-01T12:11:22.004Z,66754.00
2023-05-01T12:12:21.958Z,18658.00
2023-05-01T12:13:21.963Z,27968.00
2023-05-01T12:14:21.986Z,15280.00
2023-05-01T12:15:21.924Z,19073.00
2023-05-01T12:16:21.948Z,24051.00
2023-05-01T12:17:22.027Z,19969.00
2023-05-01T12:18:21.919Z,17978.00
2023-05-01T12:19:22.451Z,14041.00
2023-05-01T12:20:21.886Z,32131.00
2023-05-01T12:21:21.899Z,29732.00
2023-05-01T12:22:21.928Z,73552.00
2023-05-01T12:23:21.865Z,38832.00